Latest Weather Observations for Cape Grim

IDT60801

Issued at 6:02 pm EST Monday 25 September 2017 (issued every 30 minutes, with the page automatically refreshed every 10 minutes)

About weather observations | Map of weather stations | Latest weather observations for TAS | Other Formats
Station Details ID: 091331 Name: CAPE GRIM Lat: -40.68 Lon: 144.69 Height: 86.0 m
Data from the previous 72 hours. | See also: Recent months at Cape Grim
Date/Time
EST
Temp
°C
App
Temp
°C
Dew
Point
°C
Rel
Hum
%
Delta-T
°C
Wind Press
QNH
hPa
Press
MSL
hPa
Rain since
9am
mm
Dir  Spd
km/h
Gust
km/h
Spd
kts
Gust
kts
25/06:00pm 9.2 0.0 3.6 68 2.4 SW 41 52 22 28 1009.6 1009.6 0.4
25/05:30pm 9.4 -0.2 3.4 66 2.6 SW 43 54 23 29 1009.2 1009.2 0.4
25/05:00pm 9.6 -0.3 2.9 63 2.9 SW 44 54 24 29 1008.8 1008.8 0.4
25/04:30pm 10.0 0.3 3.7 65 2.8 SW 44 52 24 28 1008.6 1008.6 0.4
25/04:00pm 10.1 0.7 4.5 68 2.5 SW 43 54 23 29 1008.1 1008.1 0.4
25/03:30pm 9.7 0.1 4.5 70 2.3 SW 44 57 24 31 1007.9 1007.9 0.4
25/03:00pm 10.1 0.5 4.3 67 2.6 SW 44 57 24 31 1007.6 1007.6 0.4
25/02:30pm 9.4 -0.5 5.0 74 2.0 SW 46 57 25 31 1007.4 1007.4 0.4
25/02:00pm 9.9 -0.6 3.6 65 2.8 SW 48 59 26 32 1007.0 1007.0 0.4
25/01:30pm 10.6 1.3 4.9 68 2.6 SW 43 54 23 29 1006.9 1006.9 0.4
25/01:15pm 10.3 2.2 5.3 71 2.3 SW 37 56 20 30 1006.8 1006.8 0.4
25/01:00pm 9.5 0.2 5.7 77 1.7 SW 44 59 24 32 1006.8 1006.8 0.4
25/12:42pm 8.8 0.2 4.6 75 1.9 SW 39 57 21 31 1006.5 1006.5 0.4
25/12:30pm 9.8 2.2 6.0 77 1.8 SW 35 50 19 27 1006.4 1006.4 0.4
25/12:00pm 9.5 2.0 4.7 72 2.2 SW 33 52 18 28 1006.2 1006.2 0.4
25/11:50am 9.5 2.0 4.5 71 2.2 WSW 33 56 18 30 1006.0 1006.0 0.4
25/11:46am 9.2 1.8 4.2 71 2.2 WSW 32 48 17 26 1006.0 1006.0 0.4
25/11:42am 8.8 1.9 4.4 74 1.9 W 30 48 16 26 1005.8 1005.8 0.4
25/11:30am 8.9 1.6 4.7 75 1.9 WSW 32 50 17 27 1005.6 1005.7 0.4
25/11:02am 9.6 3.1 4.6 71 2.2 WSW 28 52 15 28 1005.5 1005.6 0.4
25/11:00am 9.4 3.6 4.2 70 2.3 WSW 24 44 13 24 1005.4 1005.5 0.4
25/10:30am 8.8 1.5 5.4 79 1.5 WSW 33 54 18 29 1005.2 1005.3 0.4
25/10:03am 9.9 0.4 4.7 70 2.3 SW 44 63 24 34 1004.8 1004.9 0.0
25/10:00am 9.7 0.3 4.3 69 2.4 SW 43 56 23 30 1004.7 1004.8 0.0
25/09:30am 10.0 0.9 4.2 67 2.6 SW 41 56 22 30 1004.4 1004.5 0.0
25/09:00am 9.7 0.3 4.7 71 2.3 SW 43 57 23 31 1004.0 1004.1 5.8
25/08:30am 9.3 1.1 4.9 74 2.0 SW 37 63 20 34 1003.5 1003.6 5.6
25/08:13am 9.4 -0.2 3.6 67 2.5 SW 43 63 23 34 1003.2 1003.3 5.6
25/08:00am 9.6 0.1 4.8 72 2.2 SW 44 57 24 31 1003.0 1003.1 5.6
25/07:30am 9.0 -0.4 5.4 78 1.6 SW 44 56 24 30 1002.7 1002.8 5.6
25/07:03am 8.8 1.4 5.2 78 1.6 SW 33 56 18 30 1002.2 1002.3 5.6
25/07:00am 9.0 1.9 5.4 78 1.6 WSW 32 56 17 30 1002.2 1002.3 5.6
25/06:53am 8.3 -0.7 4.3 76 1.8 SW 41 59 22 32 1002.2 1002.3 5.6
25/06:30am 8.7 -0.7 5.3 79 1.5 SW 44 56 24 30 1001.9 1002.0 5.6
25/06:05am 9.0 -1.2 5.4 78 1.6 SW 48 72 26 39 1001.3 1001.4 5.0
25/06:00am 8.8 -0.7 4.8 76 1.8 SW 44 56 24 30 1001.3 1001.4 5.0
25/05:30am 8.6 -0.8 5.4 80 1.4 SW 44 54 24 29 1000.8 1000.9 5.0
25/05:03am 8.9 -0.6 4.9 76 1.8 SW 44 65 24 35 1000.5 1000.5 5.0
25/05:00am 9.1 -0.1 5.3 77 1.7 SW 43 56 23 30 1000.5 1000.5 5.0
25/04:30am 8.8 -1.3 5.9 82 1.3 SW 48 65 26 35 1000.0 1000.0 5.0
25/04:00am 9.6 1.2 5.4 75 1.9 SW 39 59 21 32 999.6 999.6 5.0
25/03:31am 9.3 -0.1 4.5 72 2.1 SW 43 61 23 33 999.0 999.0 5.0
25/03:30am 9.3 -0.3 4.5 72 2.1 SW 44 61 24 33 999.0 999.0 5.0
25/03:12am 9.4 1.1 6.1 80 1.5 SW 39 57 21 31 998.8 998.8 5.0
25/03:00am 9.0 -0.1 5.7 80 1.5 SW 43 57 23 31 998.8 998.8 5.0
25/02:30am 9.4 -0.7 5.6 77 1.7 SW 48 67 26 36 998.6 998.6 5.0
25/02:00am 9.4 0.6 5.6 77 1.8 SW 41 59 22 32 998.4 998.4 5.0
25/01:30am 9.8 1.3 5.2 73 2.1 SW 39 59 21 32 998.3 998.3 5.0
25/01:15am 9.8 0.5 6.0 77 1.8 SW 44 69 24 37 998.2 998.2 5.0
25/01:00am 9.5 0.4 6.6 82 1.4 SW 44 61 24 33 998.1 998.1 5.0
25/12:33am 10.1 1.8 6.3 77 1.8 SW 39 61 21 33 997.6 997.6 5.0
25/12:30am 9.9 1.6 6.1 77 1.8 SW 39 54 21 29 997.6 997.6 5.0
25/12:02am 10.0 1.1 6.7 80 1.6 SW 43 61 23 33 997.1 997.1 5.0
25/12:00am 10.5 2.1 7.4 81 1.5 SW 41 57 22 31 997.1 997.1 5.0
 
Date/Time
EST
Temp
°C
App
Temp
°C
Dew
Point
°C
Rel
Hum
%
Delta-T
°C
Wind Press
QNH
hPa
Press
MSL
hPa
Rain since
9am
mm
Dir  Spd
km/h
Gust
km/h
Spd
kts
Gust
kts
24/11:30pm 10.2 1.0 7.8 85 1.2 SW 46 61 25 33 996.6 996.6 5.0
24/11:00pm 10.1 0.1 8.0 87 1.0 SW 50 59 27 32 996.0 996.0 5.0
24/10:30pm 10.3 1.0 9.2 93 0.5 SW 48 65 26 35 995.2 995.2 5.0
24/10:00pm 10.9 2.6 10.0 94 0.5 SW 44 59 24 32 994.5 994.5 5.0
24/09:56pm 10.9 3.2 10.0 94 0.5 SW 41 59 22 32 994.4 994.4 5.0
24/09:30pm 10.8 4.1 8.2 84 1.3 W 33 54 18 29 993.8 993.8 4.6
24/09:00pm 11.3 4.8 8.9 85 1.2 W 33 52 18 28 993.2 993.3 4.6
24/08:30pm 11.2 4.3 8.8 85 1.2 W 35 54 19 29 992.6 992.7 4.6
24/08:13pm 11.0 4.7 9.1 88 0.9 W 32 52 17 28 992.4 992.5 4.6
24/08:00pm 11.1 4.9 10.0 93 0.6 W 33 46 18 25 992.2 992.3 4.6
24/07:30pm 11.4 2.4 10.3 93 0.6 W 48 63 26 34 991.5 991.6 4.6
24/07:22pm 11.4 3.1 10.1 92 0.7 W 44 63 24 34 991.3 991.4 4.6
24/07:00pm 11.4 3.1 10.1 92 0.7 WNW 44 57 24 31 991.0 991.1 4.6
24/06:30pm 10.7 0.9 8.5 86 1.1 WNW 50 63 27 34 990.7 990.7 4.6
24/06:00pm 10.7 1.7 8.8 88 1.0 WNW 46 59 25 32 990.5 990.5 4.6
24/05:30pm 11.9 4.3 10.6 92 0.7 NW 41 57 22 31 990.3 990.3 4.4
24/05:07pm 12.0 4.3 10.1 88 1.0 NW 41 59 22 32 990.4 990.4 4.2
24/05:00pm 12.2 3.5 10.1 87 1.1 WNW 46 57 25 31 990.4 990.4 4.2
24/04:34pm 11.8 4.3 11.0 95 0.4 WNW 41 59 22 32 990.5 990.5 4.2
24/04:30pm 11.5 4.0 10.9 96 0.3 WNW 41 72 22 39 990.6 990.6 4.2
24/04:00pm 12.1 1.7 9.3 83 1.4 WNW 54 72 29 39 990.4 990.4 1.8
24/03:43pm 11.8 4.6 10.5 92 0.7 NW 39 63 21 34 990.8 990.8 1.8
24/03:30pm 11.7 4.5 10.6 93 0.6 WNW 39 50 21 27 990.9 991.0 1.8
24/03:00pm 11.9 2.4 8.4 79 1.8 NW 48 72 26 39 991.0 991.1 1.0
24/02:30pm 13.1 5.0 9.9 81 1.7 WNW 43 61 23 33 991.2 991.3 1.0
24/02:00pm 12.3 3.6 10.0 86 1.2 WNW 46 67 25 36 991.2 991.3 1.0
24/01:30pm 12.0 3.0 8.8 81 1.6 WNW 46 72 25 39 991.4 991.5 0.8
24/01:00pm 11.5 2.2 9.1 85 1.2 WNW 48 70 26 38 991.6 991.7 0.6
24/12:54pm 12.2 4.1 8.5 78 1.8 WNW 41 65 22 35 991.9 992.0 0.0
24/12:30pm 12.6 5.0 9.2 80 1.7 WNW 39 48 21 26 992.0 992.1 0.0
24/12:00pm 12.4 3.8 8.3 76 2.1 WNW 43 56 23 30 992.0 992.1 0.0
24/11:30am 11.8 1.9 8.1 78 1.8 WNW 50 65 27 35 992.0 992.1 0.0
24/11:05am 12.2 2.3 8.3 77 1.9 WNW 50 72 27 39 991.8 991.9 0.0
24/11:00am 12.5 3.1 8.6 77 2.0 WNW 48 63 26 34 991.9 992.0 0.0
24/10:30am 13.0 5.1 9.4 79 1.8 WNW 41 52 22 28 992.1 992.2 0.0
24/10:00am 13.1 3.2 8.4 73 2.4 WNW 50 65 27 35 992.0 992.1 0.0
24/09:30am 12.9 4.5 9.0 77 2.0 WNW 43 52 23 28 992.1 992.2 0.0
24/09:00am 12.0 4.7 8.7 80 1.7 WNW 37 48 20 26 992.1 992.2 5.6
24/08:30am 12.1 4.0 8.8 80 1.7 WNW 41 48 22 26 992.0 992.1 5.6
24/08:00am 11.9 3.3 8.7 81 1.6 WNW 44 59 24 32 991.9 992.0 5.6
24/07:30am 11.5 3.3 8.2 80 1.6 WNW 41 50 22 27 991.9 992.0 5.6
24/07:00am 10.5 2.1 7.4 81 1.5 WNW 41 48 22 26 992.0 992.1 5.6
24/06:44am 11.1 1.9 8.0 81 1.5 WNW 46 65 25 35 991.8 991.9 5.4
24/06:30am 11.9 3.3 8.9 82 1.5 WNW 44 59 24 32 991.8 991.9 5.4
24/06:00am 11.7 2.3 8.7 82 1.5 WNW 48 59 26 32 991.4 991.5 5.4
24/05:30am 11.5 1.4 8.9 84 1.3 WNW 52 63 28 34 991.3 991.4 5.4
24/05:00am 11.6 2.3 9.2 85 1.2 WNW 48 59 26 32 991.4 991.5 5.4
24/04:30am 11.6 2.7 9.3 86 1.2 WNW 46 65 25 35 991.3 991.4 5.4
24/04:07am 11.6 2.8 9.5 87 1.1 WNW 46 65 25 35 991.4 991.5 5.4
24/04:00am 11.7 2.1 9.6 87 1.1 WNW 50 63 27 34 991.4 991.5 5.4
24/03:54am 11.6 3.2 9.5 87 1.1 WNW 44 63 24 34 991.4 991.5 5.4
24/03:30am 11.8 1.4 9.4 85 1.2 WNW 54 65 29 35 991.5 991.6 5.4
24/03:00am 11.8 2.2 9.5 86 1.2 WNW 50 59 27 32 991.6 991.7 5.4
24/02:49am 11.8 2.2 9.5 86 1.2 WNW 50 70 27 38 991.7 991.8 5.4
24/02:30am 12.0 2.4 9.6 85 1.2 WNW 50 63 27 34 991.8 991.9 5.4
24/02:00am 11.6 1.6 9.3 86 1.2 WNW 52 67 28 36 991.9 992.0 5.4
24/01:39am 11.9 2.3 9.5 85 1.2 WNW 50 69 27 37 992.0 992.1 5.4
24/01:30am 12.0 2.9 9.7 86 1.2 WNW 48 61 26 33 992.1 992.2 5.4
24/01:00am 11.9 1.9 9.5 85 1.2 WNW 52 65 28 35 992.1 992.2 5.4
24/12:49am 12.0 2.4 9.6 85 1.2 WNW 50 69 27 37 992.3 992.4 5.4
24/12:30am 11.8 1.5 9.7 87 1.1 WNW 54 70 29 38 992.3 992.4 5.4
24/12:06am 12.2 3.1 9.9 86 1.2 WNW 48 69 26 37 992.2 992.3 5.4
24/12:00am 12.1 3.0 10.0 87 1.1 WNW 48 65 26 35 992.2 992.3 5.4
 
Date/Time
EST
Temp
°C
App
Temp
°C
Dew
Point
°C
Rel
Hum
%
Delta-T
°C
Wind Press
QNH
hPa
Press
MSL
hPa
Rain since
9am
mm
Dir  Spd
km/h
Gust
km/h
Spd
kts
Gust
kts
23/11:30pm 12.1 3.1 10.2 88 1.0 WNW 48 65 26 35 992.3 992.4 5.4
23/11:00pm 12.0 1.7 9.7 86 1.2 WNW 54 74 29 40 992.2 992.3 5.4
23/10:32pm 12.2 1.1 10.1 87 1.1 WNW 59 78 32 42 992.0 992.1 5.4
23/10:30pm 12.2 0.7 10.1 87 1.1 WNW 61 78 33 42 992.0 992.1 5.4
23/10:01pm 12.3 1.7 10.0 86 1.2 WNW 56 74 30 40 991.9 992.0 5.4
23/10:00pm 12.4 1.6 10.1 86 1.2 WNW 57 74 31 40 992.0 992.1 5.4
23/09:30pm 12.5 3.1 10.2 86 1.2 WNW 50 70 27 38 992.0 992.1 5.4
23/09:15pm 12.6 4.0 10.3 86 1.2 WNW 46 65 25 35 991.7 991.8 5.4
23/09:00pm 12.7 3.3 10.1 84 1.4 WNW 50 63 27 34 992.0 992.1 5.4
23/08:30pm 12.3 3.9 11.0 92 0.7 WNW 46 65 25 35 991.9 992.0 5.4
23/08:24pm 12.4 5.6 11.8 96 0.3 NW 39 61 21 33 991.8 991.9 5.4
23/08:00pm 12.5 5.7 11.9 96 0.3 NW 39 48 21 26 991.7 991.8 5.4
23/07:37pm 12.4 5.5 11.6 95 0.4 NW 39 57 21 31 991.7 991.8 5.4
23/07:30pm 12.3 5.0 11.5 95 0.4 NW 41 57 22 31 991.8 991.9 5.4
23/07:08pm 12.1 5.5 11.5 96 0.3 NW 37 56 20 30 991.6 991.7 5.4
23/07:00pm 12.0 4.7 11.4 96 0.3 NNW 41 52 22 28 991.7 991.8 5.4
23/06:30pm 11.7 6.4 11.1 96 0.3 NNW 30 37 16 20 991.0 991.1 5.4
23/06:00pm 11.5 7.7 11.0 97 0.3 NNW 22 28 12 15 991.3 991.4 5.4
23/05:30pm 11.7 7.1 11.1 96 0.3 NNW 26 32 14 17 991.9 992.0 4.8
23/05:00pm 11.9 6.2 11.1 95 0.4 NW 32 44 17 24 992.5 992.6 3.8
23/04:30pm 12.0 5.1 11.7 98 0.2 NNW 39 67 21 36 991.9 992.0 3.6
23/04:24pm 12.0 8.0 11.8 99 0.1 N 24 67 13 36 991.8 991.9 3.6
23/04:00pm 11.6 8.2 11.3 98 0.2 NNE 20 26 11 14 991.4 991.5 2.2
23/03:54pm 11.7 8.0 11.4 98 0.2 NE 22 32 12 17 991.7 991.8 0.8
23/03:30pm 12.1 6.5 11.5 96 0.3 ENE 32 37 17 20 989.7 989.7 0.4
23/03:00pm 12.8 6.3 11.7 93 0.6 ENE 37 44 20 24 990.0 990.0 0.4
23/02:30pm 12.6 7.0 11.5 93 0.6 ENE 32 39 17 21 991.2 991.3 0.4
23/02:00pm 12.8 6.7 11.9 94 0.5 ENE 35 43 19 23 990.5 990.5 0.4
23/01:30pm 12.9 6.6 12.4 97 0.3 E 37 44 20 24 990.1 990.1 0.4
23/01:00pm 12.7 7.2 12.5 99 0.1 E 33 39 18 21 990.6 990.6 0.4
23/12:50pm 11.9 6.4 11.7 99 0.1 E 32 41 17 22 990.4 990.4 0.4
23/12:30pm 11.8 6.2 11.6 99 0.1 ENE 32 37 17 20 992.4 992.5 0.4
23/12:29pm 11.8 6.2 11.6 99 0.1 E 32 39 17 21 992.3 992.4 0.4
23/12:17pm 11.9 5.8 11.7 99 0.1 ESE 35 41 19 22 990.3 990.3 0.4
23/12:09pm 11.5 6.6 11.3 99 0.1 ENE 28 35 15 19 992.3 992.4 0.4
23/12:00pm 11.5 6.2 11.3 99 0.1 ENE 30 37 16 20 994.6 994.6 0.4
23/11:30am 11.9 6.4 11.7 99 0.1 E 32 37 17 20 993.3 993.4 0.4
23/11:15am 11.5 5.6 11.3 99 0.1 E 33 41 18 22 993.9 993.9 0.4
23/11:00am 11.3 5.4 11.1 99 0.1 ENE 33 39 18 21 995.9 995.9 0.4
23/10:30am 11.5 6.2 11.3 99 0.1 E 30 35 16 19 995.7 995.7 0.4
23/10:00am 11.4 6.5 11.2 99 0.1 E 28 33 15 18 996.5 996.5 0.4
23/09:30am 11.2 5.3 11.2 100 0.0 ENE 33 39 18 21 996.7 996.7 0.2
23/09:00am 11.2 5.5 11.2 100 0.0 E 32 35 17 19 997.2 997.2 5.2
23/08:30am 11.3 6.4 11.3 100 0.0 E 28 35 15 19 997.6 997.6 5.0
23/08:00am 11.1 5.8 11.1 100 0.0 E 30 35 16 19 997.5 997.5 5.0
23/07:30am 11.1 6.5 10.9 99 0.1 E 26 32 14 17 998.5 998.5 5.0
23/07:00am 11.1 5.1 10.9 99 0.1 ENE 33 41 18 22 1000.1 1000.1 4.0
23/06:41am 11.2 5.5 11.0 99 0.1 E 32 41 17 22 999.2 999.2 2.8
23/06:30am 11.0 5.2 10.8 99 0.1 E 32 41 17 22 997.2 997.2 2.6
23/06:00am 11.1 4.4 10.9 99 0.1 E 37 46 20 25 996.9 996.9 0.6
23/05:30am 11.3 4.3 11.1 99 0.1 E 39 50 21 27 996.9 996.9 0.6
23/05:00am 11.2 4.5 11.0 99 0.1 E 37 46 20 25 997.5 997.5 0.6
23/04:52am 11.2 4.5 11.0 99 0.1 E 37 46 20 25 997.8 997.8 0.6
23/04:30am 11.1 4.8 10.9 99 0.1 E 35 46 19 25 998.0 998.0 0.4
23/04:00am 11.1 3.2 10.9 99 0.1 ENE 43 52 23 28 997.9 997.9 0.4
23/03:30am 11.0 2.5 10.8 99 0.1 E 46 56 25 30 998.1 998.1 0.4
23/03:00am 11.0 2.5 10.8 99 0.1 E 46 56 25 30 999.6 999.6 0.4
23/02:31am 11.0 2.5 10.8 99 0.1 E 46 57 25 31 999.8 999.8 0.4
23/02:30am 11.0 2.5 10.8 99 0.1 E 46 57 25 31 999.8 999.8 0.4
23/02:22am 11.0 2.5 10.8 99 0.1 E 46 54 25 29 999.9 999.9 0.4
23/02:00am 11.0 2.5 10.8 99 0.1 E 46 57 25 31 1000.1 1000.1 0.4
23/01:58am 11.0 2.5 10.8 99 0.1 E 46 57 25 31 1000.2 1000.2 0.4
23/01:30am 11.1 2.7 10.9 99 0.1 E 46 54 25 29 1000.8 1000.9 0.4
23/01:00am 11.0 2.9 10.7 98 0.2 E 44 54 24 29 1001.0 1001.1 0.4
23/12:30am 11.0 2.1 10.7 98 0.2 E 48 63 26 34 1001.5 1001.6 0.4
23/12:09am 11.0 1.7 10.7 98 0.2 ENE 50 61 27 33 1001.7 1001.8 0.4
23/12:00am 11.0 1.7 10.7 98 0.2 ENE 50 61 27 33 1001.8 1001.9 0.4
 
Date/Time
EST
Temp
°C
App
Temp
°C
Dew
Point
°C
Rel
Hum
%
Delta-T
°C
Wind Press
QNH
hPa
Press
MSL
hPa
Rain since
9am
mm
Dir  Spd
km/h
Gust
km/h
Spd
kts
Gust
kts
22/11:51pm 10.9 1.6 10.6 98 0.2 ENE 50 63 27 34 1001.9 1002.0 0.4
22/11:30pm 11.0 2.1 10.7 98 0.2 E 48 59 26 32 1002.4 1002.5 0.4
22/11:00pm 11.0 3.0 10.5 97 0.3 E 43 54 23 29 1003.3 1003.4 0.2
22/10:30pm 11.0 2.8 10.5 97 0.3 ENE 44 57 24 31 1003.2 1003.3 0.0
22/10:00pm 11.1 3.1 10.5 96 0.3 ENE 43 54 23 29 1003.5 1003.6 0.0
22/09:30pm 11.0 3.0 10.4 96 0.3 ENE 43 54 23 29 1003.8 1003.9 0.0
22/09:00pm 11.0 3.3 10.2 95 0.4 ENE 41 50 22 27 1004.1 1004.2 0.0
22/08:30pm 11.1 3.8 10.3 95 0.4 ENE 39 46 21 25 1004.5 1004.6 0.0
22/08:00pm 11.1 4.6 10.3 95 0.4 ENE 35 41 19 22 1005.4 1005.5 0.0
22/07:30pm 11.1 4.6 10.2 94 0.5 ENE 35 41 19 22 1005.8 1005.8 0.0
22/07:00pm 11.2 6.0 10.3 94 0.5 ENE 28 35 15 19 1006.0 1006.0 0.0
22/06:30pm 11.2 4.3 10.3 94 0.5 NE 37 46 20 25 1004.8 1004.9 0.0

Other Formats:

Comma delimited format used in spreadsheet applications
http://www.bom.gov.au/fwo/IDT60801/IDT60801.95954.axf

JavaScript Object Notation format (JSON) in row-major order
http://www.bom.gov.au/fwo/IDT60801/IDT60801.95954.json